sensor_id;sensor_type;location;lat;lon;timestamp;temperature;humidity
21439;DHT22;10880;50.302;18.736;2024-03-23T00:53:21;15.70;54.50
21439;DHT22;10880;50.302;18.736;2024-03-23T00:55:47;15.60;54.10
21439;DHT22;10880;50.302;18.736;2024-03-23T00:58:14;15.60;54.30
21439;DHT22;10880;50.302;18.736;2024-03-23T01:00:40;15.60;54.30
21439;DHT22;10880;50.302;18.736;2024-03-23T01:03:07;15.60;54.10
21439;DHT22;10880;50.302;18.736;2024-03-23T01:05:34;15.60;54.30
21439;DHT22;10880;50.302;18.736;2024-03-23T01:08:01;15.60;54.30
21439;DHT22;10880;50.302;18.736;2024-03-23T01:10:28;15.60;54.40
21439;DHT22;10880;50.302;18.736;2024-03-23T01:12:54;15.50;54.20
21439;DHT22;10880;50.302;18.736;2024-03-23T01:15:21;15.50;54.30
21439;DHT22;10880;50.302;18.736;2024-03-23T01:17:47;15.50;54.40
21439;DHT22;10880;50.302;18.736;2024-03-23T01:20:14;15.50;54.30
21439;DHT22;10880;50.302;18.736;2024-03-23T01:22:40;15.50;54.50
21439;DHT22;10880;50.302;18.736;2024-03-23T01:25:07;15.40;54.40
21439;DHT22;10880;50.302;18.736;2024-03-23T01:27:34;15.40;54.40
21439;DHT22;10880;50.302;18.736;2024-03-23T01:30:00;15.40;54.40
21439;DHT22;10880;50.302;18.736;2024-03-23T01:32:27;15.40;54.30
21439;DHT22;10880;50.302;18.736;2024-03-23T01:34:53;15.40;54.40
21439;DHT22;10880;50.302;18.736;2024-03-23T01:37:20;15.40;54.50
21439;DHT22;10880;50.302;18.736;2024-03-23T01:39:47;15.40;54.60
21439;DHT22;10880;50.302;18.736;2024-03-23T01:42:13;15.40;54.60
21439;DHT22;10880;50.302;18.736;2024-03-23T01:44:40;15.40;54.50
21439;DHT22;10880;50.302;18.736;2024-03-23T01:47:07;15.30;54.60
21439;DHT22;10880;50.302;18.736;2024-03-23T01:49:33;15.30;55.30
21439;DHT22;10880;50.302;18.736;2024-03-23T01:52:00;15.30;54.70
21439;DHT22;10880;50.302;18.736;2024-03-23T01:54:27;15.30;54.90
21439;DHT22;10880;50.302;18.736;2024-03-23T01:56:54;15.30;54.80
21439;DHT22;10880;50.302;18.736;2024-03-23T01:59:21;15.30;54.90
21439;DHT22;10880;50.302;18.736;2024-03-23T02:01:48;15.30;54.80
21439;DHT22;10880;50.302;18.736;2024-03-23T02:04:14;15.20;54.70
21439;DHT22;10880;50.302;18.736;2024-03-23T02:06:41;15.20;54.70
21439;DHT22;10880;50.302;18.736;2024-03-23T02:09:11;15.20;54.90
21439;DHT22;10880;50.302;18.736;2024-03-23T02:11:38;15.20;54.90
21439;DHT22;10880;50.302;18.736;2024-03-23T02:14:04;15.20;54.80
21439;DHT22;10880;50.302;18.736;2024-03-23T02:16:31;15.20;54.90
21439;DHT22;10880;50.302;18.736;2024-03-23T02:18:57;15.20;54.90
21439;DHT22;10880;50.302;18.736;2024-03-23T02:21:24;15.10;54.80
21439;DHT22;10880;50.302;18.736;2024-03-23T02:23:50;15.20;55.00
21439;DHT22;10880;50.302;18.736;2024-03-23T02:26:17;15.10;54.90
21439;DHT22;10880;50.302;18.736;2024-03-23T02:28:43;15.10;55.00
21439;DHT22;10880;50.302;18.736;2024-03-23T02:31:10;15.10;54.90
21439;DHT22;10880;50.302;18.736;2024-03-23T02:33:39;15.10;55.00
21439;DHT22;10880;50.302;18.736;2024-03-23T02:36:06;15.10;55.00
21439;DHT22;10880;50.302;18.736;2024-03-23T02:38:32;15.10;55.10
21439;DHT22;10880;50.302;18.736;2024-03-23T02:41:05;15.10;55.20
21439;DHT22;10880;50.302;18.736;2024-03-23T02:43:31;15.10;55.20
21439;DHT22;10880;50.302;18.736;2024-03-23T02:45:58;15.10;55.00
21439;DHT22;10880;50.302;18.736;2024-03-23T02:48:24;15.10;55.50
21439;DHT22;10880;50.302;18.736;2024-03-23T02:50:51;15.10;55.30
21439;DHT22;10880;50.302;18.736;2024-03-23T02:53:18;15.00;55.20
21439;DHT22;10880;50.302;18.736;2024-03-23T02:55:45;15.00;55.50
21439;DHT22;10880;50.302;18.736;2024-03-23T02:58:11;15.00;55.30
21439;DHT22;10880;50.302;18.736;2024-03-23T03:00:38;15.00;55.30
21439;DHT22;10880;50.302;18.736;2024-03-23T03:03:04;15.00;55.30
21439;DHT22;10880;50.302;18.736;2024-03-23T03:07:58;15.00;55.10
21439;DHT22;10880;50.302;18.736;2024-03-23T03:10:24;15.00;55.30
21439;DHT22;10880;50.302;18.736;2024-03-23T03:12:51;14.90;55.40
21439;DHT22;10880;50.302;18.736;2024-03-23T03:15:17;14.90;55.40
21439;DHT22;10880;50.302;18.736;2024-03-23T03:17:47;14.90;55.60
21439;DHT22;10880;50.302;18.736;2024-03-23T03:20:16;14.90;55.70
21439;DHT22;10880;50.302;18.736;2024-03-23T03:22:44;14.90;55.70
21439;DHT22;10880;50.302;18.736;2024-03-23T03:25:10;14.90;55.60
21439;DHT22;10880;50.302;18.736;2024-03-23T03:27:37;14.90;55.70
21439;DHT22;10880;50.302;18.736;2024-03-23T03:30:04;14.90;55.60
21439;DHT22;10880;50.302;18.736;2024-03-23T03:32:35;14.80;55.80
21439;DHT22;10880;50.302;18.736;2024-03-23T03:35:01;15.20;55.90
21439;DHT22;10880;50.302;18.736;2024-03-23T03:37:28;14.90;55.80
21439;DHT22;10880;50.302;18.736;2024-03-23T03:39:55;14.80;55.80
21439;DHT22;10880;50.302;18.736;2024-03-23T03:42:21;14.80;55.60
21439;DHT22;10880;50.302;18.736;2024-03-23T03:47:14;14.80;55.50
21439;DHT22;10880;50.302;18.736;2024-03-23T03:49:44;14.80;55.80
21439;DHT22;10880;50.302;18.736;2024-03-23T03:52:10;14.80;56.20
21439;DHT22;10880;50.302;18.736;2024-03-23T03:54:37;14.80;56.00
21439;DHT22;10880;50.302;18.736;2024-03-23T03:57:03;14.80;55.90
21439;DHT22;10880;50.302;18.736;2024-03-23T03:59:30;14.80;56.10
21439;DHT22;10880;50.302;18.736;2024-03-23T04:01:56;14.80;56.10
21439;DHT22;10880;50.302;18.736;2024-03-23T04:04:23;14.80;56.10
21439;DHT22;10880;50.302;18.736;2024-03-23T04:06:52;14.70;56.20
21439;DHT22;10880;50.302;18.736;2024-03-23T04:09:24;14.70;56.30
21439;DHT22;10880;50.302;18.736;2024-03-23T04:11:51;14.70;56.00
21439;DHT22;10880;50.302;18.736;2024-03-23T04:14:17;14.70;56.30
21439;DHT22;10880;50.302;18.736;2024-03-23T04:16:44;14.70;56.20
21439;DHT22;10880;50.302;18.736;2024-03-23T04:19:10;14.70;56.30
21439;DHT22;10880;50.302;18.736;2024-03-23T04:21:37;14.60;56.20
21439;DHT22;10880;50.302;18.736;2024-03-23T04:24:05;14.60;56.30
21439;DHT22;10880;50.302;18.736;2024-03-23T04:26:44;14.60;56.40
21439;DHT22;10880;50.302;18.736;2024-03-23T04:29:14;14.60;56.60
21439;DHT22;10880;50.302;18.736;2024-03-23T04:31:40;14.60;56.50
21439;DHT22;10880;50.302;18.736;2024-03-23T04:34:07;14.60;56.40
21439;DHT22;10880;50.302;18.736;2024-03-23T04:36:33;14.60;56.30
21439;DHT22;10880;50.302;18.736;2024-03-23T04:39:02;14.60;56.50
21439;DHT22;10880;50.302;18.736;2024-03-23T04:41:29;14.60;56.50
21439;DHT22;10880;50.302;18.736;2024-03-23T04:43:56;14.50;56.60
21439;DHT22;10880;50.302;18.736;2024-03-23T04:46:23;14.60;56.60
21439;DHT22;10880;50.302;18.736;2024-03-23T04:48:49;14.60;56.50
21439;DHT22;10880;50.302;18.736;2024-03-23T04:51:25;14.60;56.60
21439;DHT22;10880;50.302;18.736;2024-03-23T04:53:52;13.50;56.00
21439;DHT22;10880;50.302;18.736;2024-03-23T04:56:19;14.60;56.60
21439;DHT22;10880;50.302;18.736;2024-03-23T04:58:45;14.60;56.70
21439;DHT22;10880;50.302;18.736;2024-03-23T05:01:12;14.60;56.70
21439;DHT22;10880;50.302;18.736;2024-03-23T05:03:39;14.60;56.60
21439;DHT22;10880;50.302;18.736;2024-03-23T05:06:05;14.60;56.70
21439;DHT22;10880;50.302;18.736;2024-03-23T05:08:32;14.60;56.90
21439;DHT22;10880;50.302;18.736;2024-03-23T05:10:59;14.60;56.70
21439;DHT22;10880;50.302;18.736;2024-03-23T05:13:26;14.60;56.80
21439;DHT22;10880;50.302;18.736;2024-03-23T05:15:56;14.60;56.90
21439;DHT22;10880;50.302;18.736;2024-03-23T05:18:22;14.60;56.90
21439;DHT22;10880;50.302;18.736;2024-03-23T05:20:49;14.50;56.90
21439;DHT22;10880;50.302;18.736;2024-03-23T05:23:21;14.50;57.20
21439;DHT22;10880;50.302;18.736;2024-03-23T05:25:48;14.50;56.90
21439;DHT22;10880;50.302;18.736;2024-03-23T05:28:15;14.50;56.90
21439;DHT22;10880;50.302;18.736;2024-03-23T05:30:42;14.50;57.10
21439;DHT22;10880;50.302;18.736;2024-03-23T05:33:08;14.50;57.00
21439;DHT22;10880;50.302;18.736;2024-03-23T05:35:35;14.50;57.10
21439;DHT22;10880;50.302;18.736;2024-03-23T05:38:01;14.50;57.10
21439;DHT22;10880;50.302;18.736;2024-03-23T05:40:28;14.50;57.60
21439;DHT22;10880;50.302;18.736;2024-03-23T05:42:55;14.50;57.50
21439;DHT22;10880;50.302;18.736;2024-03-23T05:45:22;14.50;57.60
21439;DHT22;10880;50.302;18.736;2024-03-23T05:47:48;14.50;57.50
21439;DHT22;10880;50.302;18.736;2024-03-23T05:50:15;14.50;57.80
21439;DHT22;10880;50.302;18.736;2024-03-23T05:52:41;14.50;57.60
21439;DHT22;10880;50.302;18.736;2024-03-23T05:55:09;14.50;57.90
21439;DHT22;10880;50.302;18.736;2024-03-23T05:57:38;14.50;57.70
21439;DHT22;10880;50.302;18.736;2024-03-23T06:00:06;14.50;57.90
21439;DHT22;10880;50.302;18.736;2024-03-23T06:02:42;14.50;58.10
21439;DHT22;10880;50.302;18.736;2024-03-23T06:05:12;14.50;58.00
21439;DHT22;10880;50.302;18.736;2024-03-23T06:07:38;14.50;57.80
21439;DHT22;10880;50.302;18.736;2024-03-23T06:10:05;14.50;58.00
21439;DHT22;10880;50.302;18.736;2024-03-23T06:12:32;14.50;58.00
21439;DHT22;10880;50.302;18.736;2024-03-23T06:14:58;14.50;58.00
21439;DHT22;10880;50.302;18.736;2024-03-23T06:17:25;14.50;58.00
21439;DHT22;10880;50.302;18.736;2024-03-23T06:19:51;14.50;58.90
21439;DHT22;10880;50.302;18.736;2024-03-23T06:22:18;14.60;58.20
21439;DHT22;10880;50.302;18.736;2024-03-23T06:24:44;14.50;58.20
21439;DHT22;10880;50.302;18.736;2024-03-23T06:27:12;14.50;58.00
21439;DHT22;10880;50.302;18.736;2024-03-23T06:29:38;14.50;58.10
21439;DHT22;10880;50.302;18.736;2024-03-23T06:32:06;14.60;58.30
21439;DHT22;10880;50.302;18.736;2024-03-23T06:34:33;14.60;58.40
21439;DHT22;10880;50.302;18.736;2024-03-23T06:37:06;14.60;58.50
21439;DHT22;10880;50.302;18.736;2024-03-23T06:39:39;14.70;58.70
21439;DHT22;10880;50.302;18.736;2024-03-23T06:42:06;14.60;58.70
21439;DHT22;10880;50.302;18.736;2024-03-23T06:44:37;14.70;59.00
21439;DHT22;10880;50.302;18.736;2024-03-23T06:47:11;14.70;58.70
21439;DHT22;10880;50.302;18.736;2024-03-23T06:49:39;14.70;59.00
21439;DHT22;10880;50.302;18.736;2024-03-23T06:52:08;14.70;59.10
21439;DHT22;10880;50.302;18.736;2024-03-23T06:54:34;14.80;59.50
21439;DHT22;10880;50.302;18.736;2024-03-23T06:57:01;15.10;60.00
21439;DHT22;10880;50.302;18.736;2024-03-23T06:59:30;15.00;60.50
21439;DHT22;10880;50.302;18.736;2024-03-23T07:01:57;15.10;59.80
21439;DHT22;10880;50.302;18.736;2024-03-23T07:04:24;15.20;59.60
21439;DHT22;10880;50.302;18.736;2024-03-23T07:06:53;15.40;59.90
21439;DHT22;10880;50.302;18.736;2024-03-23T07:09:29;15.50;59.90
21439;DHT22;10880;50.302;18.736;2024-03-23T07:11:56;15.60;59.60
21439;DHT22;10880;50.302;18.736;2024-03-23T07:14:27;15.70;59.70
21439;DHT22;10880;50.302;18.736;2024-03-23T07:16:54;15.80;59.60
21439;DHT22;10880;50.302;18.736;2024-03-23T07:19:21;15.80;59.40
21439;DHT22;10880;50.302;18.736;2024-03-23T07:21:47;15.90;59.30
21439;DHT22;10880;50.302;18.736;2024-03-23T07:24:16;16.00;59.10
21439;DHT22;10880;50.302;18.736;2024-03-23T07:26:43;16.10;59.40
21439;DHT22;10880;50.302;18.736;2024-03-23T07:29:10;16.20;59.20
21439;DHT22;10880;50.302;18.736;2024-03-23T07:31:36;16.20;59.10
21439;DHT22;10880;50.302;18.736;2024-03-23T07:34:03;16.30;59.10
21439;DHT22;10880;50.302;18.736;2024-03-23T07:36:29;16.40;59.10
21439;DHT22;10880;50.302;18.736;2024-03-23T07:38:56;16.40;59.10
21439;DHT22;10880;50.302;18.736;2024-03-23T07:41:22;16.50;59.00
21439;DHT22;10880;50.302;18.736;2024-03-23T07:43:49;16.50;59.00
21439;DHT22;10880;50.302;18.736;2024-03-23T07:46:16;16.60;59.00
21439;DHT22;10880;50.302;18.736;2024-03-23T07:48:43;16.70;59.10
21439;DHT22;10880;50.302;18.736;2024-03-23T07:51:13;16.70;59.20
21439;DHT22;10880;50.302;18.736;2024-03-23T07:53:43;16.90;59.70
21439;DHT22;10880;50.302;18.736;2024-03-23T07:56:10;17.00;59.90
21439;DHT22;10880;50.302;18.736;2024-03-23T07:58:37;17.10;59.80
21439;DHT22;10880;50.302;18.736;2024-03-23T08:01:14;17.30;60.00
21439;DHT22;10880;50.302;18.736;2024-03-23T08:03:43;17.50;60.10
21439;DHT22;10880;50.302;18.736;2024-03-23T08:06:12;17.70;60.20
21439;DHT22;10880;50.302;18.736;2024-03-23T08:08:40;17.80;60.10
21439;DHT22;10880;50.302;18.736;2024-03-23T08:11:07;18.00;60.00
21439;DHT22;10880;50.302;18.736;2024-03-23T08:13:35;18.20;59.70
21439;DHT22;10880;50.302;18.736;2024-03-23T08:16:02;18.40;59.50
21439;DHT22;10880;50.302;18.736;2024-03-23T08:18:29;18.50;59.30
21439;DHT22;10880;50.302;18.736;2024-03-23T08:21:00;18.70;58.80
21439;DHT22;10880;50.302;18.736;2024-03-23T08:23:28;18.80;58.80
21439;DHT22;10880;50.302;18.736;2024-03-23T08:25:59;19.00;58.60
21439;DHT22;10880;50.302;18.736;2024-03-23T08:28:29;19.10;58.00
21439;DHT22;10880;50.302;18.736;2024-03-23T08:30:56;19.20;57.70
21439;DHT22;10880;50.302;18.736;2024-03-23T08:33:23;19.30;57.40
21439;DHT22;10880;50.302;18.736;2024-03-23T08:35:59;19.40;57.20
21439;DHT22;10880;50.302;18.736;2024-03-23T08:38:26;19.50;56.90
21439;DHT22;10880;50.302;18.736;2024-03-23T08:41:04;19.60;56.60
21439;DHT22;10880;50.302;18.736;2024-03-23T08:43:36;19.70;56.30
21439;DHT22;10880;50.302;18.736;2024-03-23T08:46:10;19.70;56.00
21439;DHT22;10880;50.302;18.736;2024-03-23T08:51:10;19.90;55.40
21439;DHT22;10880;50.302;18.736;2024-03-23T08:53:37;20.00;55.30
21439;DHT22;10880;50.302;18.736;2024-03-23T08:56:05;20.00;55.20
21439;DHT22;10880;50.302;18.736;2024-03-23T08:58:33;20.10;55.00
21439;DHT22;10880;50.302;18.736;2024-03-23T09:01:08;20.20;54.80
21439;DHT22;10880;50.302;18.736;2024-03-23T09:03:35;20.20;54.70
21439;DHT22;10880;50.302;18.736;2024-03-23T09:06:09;20.30;54.50
21439;DHT22;10880;50.302;18.736;2024-03-23T09:08:36;20.40;54.40
21439;DHT22;10880;50.302;18.736;2024-03-23T09:11:07;20.40;53.90
21439;DHT22;10880;50.302;18.736;2024-03-23T09:13:35;20.50;53.90
21439;DHT22;10880;50.302;18.736;2024-03-23T09:16:02;20.50;53.60
21439;DHT22;10880;50.302;18.736;2024-03-23T09:18:32;20.60;53.30
21439;DHT22;10880;50.302;18.736;2024-03-23T09:20:59;20.60;53.30
21439;DHT22;10880;50.302;18.736;2024-03-23T09:23:28;20.70;53.00
21439;DHT22;10880;50.302;18.736;2024-03-23T09:25:55;20.70;52.40
21439;DHT22;10880;50.302;18.736;2024-03-23T09:28:22;20.70;52.30
21439;DHT22;10880;50.302;18.736;2024-03-23T09:30:48;20.70;52.00
21439;DHT22;10880;50.302;18.736;2024-03-23T09:33:15;20.80;51.60
21439;DHT22;10880;50.302;18.736;2024-03-23T09:35:42;20.80;51.10
21439;DHT22;10880;50.302;18.736;2024-03-23T09:38:10;20.80;51.10
21439;DHT22;10880;50.302;18.736;2024-03-23T09:40:41;20.80;50.70
21439;DHT22;10880;50.302;18.736;2024-03-23T09:43:12;20.80;50.50
21439;DHT22;10880;50.302;18.736;2024-03-23T09:45:39;20.80;49.70
21439;DHT22;10880;50.302;18.736;2024-03-23T09:48:10;20.80;49.70
21439;DHT22;10880;50.302;18.736;2024-03-23T09:50:40;20.80;49.60
21439;DHT22;10880;50.302;18.736;2024-03-23T09:53:07;20.80;49.40
21439;DHT22;10880;50.302;18.736;2024-03-23T09:55:34;20.80;49.60
21439;DHT22;10880;50.302;18.736;2024-03-23T09:58:02;20.80;49.30
21439;DHT22;10880;50.302;18.736;2024-03-23T10:00:32;20.80;49.30
21439;DHT22;10880;50.302;18.736;2024-03-23T10:02:59;20.80;49.10
21439;DHT22;10880;50.302;18.736;2024-03-23T10:05:29;20.80;49.10
21439;DHT22;10880;50.302;18.736;2024-03-23T10:07:58;20.90;49.00
21439;DHT22;10880;50.302;18.736;2024-03-23T10:10:27;20.90;48.90
21439;DHT22;10880;50.302;18.736;2024-03-23T10:12:55;20.90;48.80
21439;DHT22;10880;50.302;18.736;2024-03-23T10:15:25;20.90;49.00
21439;DHT22;10880;50.302;18.736;2024-03-23T10:17:52;20.90;49.20
21439;DHT22;10880;50.302;18.736;2024-03-23T10:20:23;21.00;49.00
21439;DHT22;10880;50.302;18.736;2024-03-23T10:22:52;21.00;49.20
21439;DHT22;10880;50.302;18.736;2024-03-23T10:25:22;21.10;48.70
21439;DHT22;10880;50.302;18.736;2024-03-23T10:27:59;21.10;49.00
21439;DHT22;10880;50.302;18.736;2024-03-23T10:30:27;21.20;49.00
21439;DHT22;10880;50.302;18.736;2024-03-23T10:33:10;21.20;49.00
21439;DHT22;10880;50.302;18.736;2024-03-23T10:35:38;21.30;49.20
21439;DHT22;10880;50.302;18.736;2024-03-23T10:38:08;21.40;49.10
21439;DHT22;10880;50.302;18.736;2024-03-23T10:40:35;21.50;48.90
21439;DHT22;10880;50.302;18.736;2024-03-23T10:43:03;21.50;48.70
21439;DHT22;10880;50.302;18.736;2024-03-23T10:45:32;21.60;48.80
21439;DHT22;10880;50.302;18.736;2024-03-23T10:47:59;21.60;48.40
21439;DHT22;10880;50.302;18.736;2024-03-23T10:50:26;21.70;48.40
21439;DHT22;10880;50.302;18.736;2024-03-23T10:52:56;21.80;48.30
21439;DHT22;10880;50.302;18.736;2024-03-23T10:55:26;21.80;48.10
21439;DHT22;10880;50.302;18.736;2024-03-23T10:57:57;21.90;47.70
21439;DHT22;10880;50.302;18.736;2024-03-23T11:00:26;22.00;47.70
21439;DHT22;10880;50.302;18.736;2024-03-23T11:02:52;22.00;47.00
21439;DHT22;10880;50.302;18.736;2024-03-23T11:05:31;22.00;47.00
21439;DHT22;10880;50.302;18.736;2024-03-23T11:07:58;22.10;46.70
21439;DHT22;10880;50.302;18.736;2024-03-23T11:10:29;22.10;46.60
21439;DHT22;10880;50.302;18.736;2024-03-23T11:13:22;22.20;46.90
21439;DHT22;10880;50.302;18.736;2024-03-23T11:15:49;22.20;47.30
21439;DHT22;10880;50.302;18.736;2024-03-23T11:18:21;22.30;45.60
21439;DHT22;10880;50.302;18.736;2024-03-23T11:20:47;22.30;45.70
21439;DHT22;10880;50.302;18.736;2024-03-23T11:23:34;22.30;45.60
21439;DHT22;10880;50.302;18.736;2024-03-23T11:26:01;22.40;45.80
21439;DHT22;10880;50.302;18.736;2024-03-23T11:28:29;22.40;45.50
21439;DHT22;10880;50.302;18.736;2024-03-23T11:30:56;22.50;45.80
21439;DHT22;10880;50.302;18.736;2024-03-23T11:33:22;22.50;45.20
21439;DHT22;10880;50.302;18.736;2024-03-23T11:35:50;22.50;44.80
21439;DHT22;10880;50.302;18.736;2024-03-23T11:38:18;22.60;44.10
21439;DHT22;10880;50.302;18.736;2024-03-23T11:40:49;22.60;44.30
21439;DHT22;10880;50.302;18.736;2024-03-23T11:43:18;22.60;44.20
21439;DHT22;10880;50.302;18.736;2024-03-23T11:45:47;22.60;43.90
21439;DHT22;10880;50.302;18.736;2024-03-23T11:48:20;22.70;43.70
21439;DHT22;10880;50.302;18.736;2024-03-23T11:50:48;22.70;43.20
21439;DHT22;10880;50.302;18.736;2024-03-23T11:53:19;22.70;43.00
21439;DHT22;10880;50.302;18.736;2024-03-23T11:55:52;22.40;42.40
21439;DHT22;10880;50.302;18.736;2024-03-23T11:58:20;22.80;42.50
21439;DHT22;10880;50.302;18.736;2024-03-23T12:00:51;22.90;42.70
21439;DHT22;10880;50.302;18.736;2024-03-23T12:03:19;22.80;42.70
21439;DHT22;10880;50.302;18.736;2024-03-23T12:05:53;22.80;42.60
21439;DHT22;10880;50.302;18.736;2024-03-23T12:13:33;22.90;43.30
21439;DHT22;10880;50.302;18.736;2024-03-23T12:16:18;23.00;42.40
21439;DHT22;10880;50.302;18.736;2024-03-23T12:18:49;23.00;41.70
21439;DHT22;10880;50.302;18.736;2024-03-23T12:21:17;23.00;41.60
21439;DHT22;10880;50.302;18.736;2024-03-23T12:23:44;23.00;42.30
21439;DHT22;10880;50.302;18.736;2024-03-23T12:26:13;23.10;42.00
21439;DHT22;10880;50.302;18.736;2024-03-23T12:28:39;23.10;41.70
21439;DHT22;10880;50.302;18.736;2024-03-23T12:31:06;23.10;41.80
21439;DHT22;10880;50.302;18.736;2024-03-23T12:33:32;23.10;41.60
21439;DHT22;10880;50.302;18.736;2024-03-23T12:36:06;23.10;41.50
21439;DHT22;10880;50.302;18.736;2024-03-23T12:38:34;23.10;41.80
21439;DHT22;10880;50.302;18.736;2024-03-23T12:41:00;23.20;41.40
21439;DHT22;10880;50.302;18.736;2024-03-23T12:43:27;23.20;41.40
21439;DHT22;10880;50.302;18.736;2024-03-23T12:45:54;23.20;41.40
21439;DHT22;10880;50.302;18.736;2024-03-23T12:48:20;23.20;40.70
21439;DHT22;10880;50.302;18.736;2024-03-23T12:50:54;23.30;40.70
21439;DHT22;10880;50.302;18.736;2024-03-23T12:53:21;23.30;41.00
21439;DHT22;10880;50.302;18.736;2024-03-23T12:55:47;23.30;40.50
21439;DHT22;10880;50.302;18.736;2024-03-23T12:58:15;23.30;40.70
21439;DHT22;10880;50.302;18.736;2024-03-23T13:00:43;23.30;40.70
21439;DHT22;10880;50.302;18.736;2024-03-23T13:03:14;23.30;40.80
21439;DHT22;10880;50.302;18.736;2024-03-23T13:05:54;23.40;40.50
21439;DHT22;10880;50.302;18.736;2024-03-23T13:08:20;23.40;40.70
21439;DHT22;10880;50.302;18.736;2024-03-23T13:10:47;23.40;40.10
21439;DHT22;10880;50.302;18.736;2024-03-23T13:13:13;23.40;40.00
21439;DHT22;10880;50.302;18.736;2024-03-23T13:15:40;23.40;40.00
21439;DHT22;10880;50.302;18.736;2024-03-23T13:18:06;23.50;40.00
21439;DHT22;10880;50.302;18.736;2024-03-23T13:20:35;23.50;39.50
21439;DHT22;10880;50.302;18.736;2024-03-23T13:23:02;23.50;39.80
21439;DHT22;10880;50.302;18.736;2024-03-23T13:25:28;23.50;39.70
21439;DHT22;10880;50.302;18.736;2024-03-23T13:27:55;23.50;39.80
21439;DHT22;10880;50.302;18.736;2024-03-23T13:30:21;23.50;39.50
21439;DHT22;10880;50.302;18.736;2024-03-23T13:32:49;23.50;41.10
21439;DHT22;10880;50.302;18.736;2024-03-23T13:35:19;23.50;42.30
21439;DHT22;10880;50.302;18.736;2024-03-23T13:37:45;23.30;42.70
21439;DHT22;10880;50.302;18.736;2024-03-23T13:40:12;23.20;43.30
21439;DHT22;10880;50.302;18.736;2024-03-23T13:42:39;23.00;43.50
21439;DHT22;10880;50.302;18.736;2024-03-23T13:45:11;22.80;43.90
21439;DHT22;10880;50.302;18.736;2024-03-23T13:47:38;22.50;44.40
21439;DHT22;10880;50.302;18.736;2024-03-23T13:50:05;22.30;44.40
21439;DHT22;10880;50.302;18.736;2024-03-23T13:52:35;22.10;44.80
21439;DHT22;10880;50.302;18.736;2024-03-23T13:55:03;21.80;44.90
21439;DHT22;10880;50.302;18.736;2024-03-23T13:57:30;21.60;45.20
21439;DHT22;10880;50.302;18.736;2024-03-23T13:59:57;21.30;45.50
21439;DHT22;10880;50.302;18.736;2024-03-23T14:02:24;21.10;45.90
21439;DHT22;10880;50.302;18.736;2024-03-23T14:04:50;20.90;46.20
21439;DHT22;10880;50.302;18.736;2024-03-23T14:07:17;20.70;46.80
21439;DHT22;10880;50.302;18.736;2024-03-23T14:09:47;20.50;46.90
21439;DHT22;10880;50.302;18.736;2024-03-23T14:12:13;20.30;47.10
21439;DHT22;10880;50.302;18.736;2024-03-23T14:14:40;20.20;47.40
21439;DHT22;10880;50.302;18.736;2024-03-23T14:17:06;20.00;47.40
21439;DHT22;10880;50.302;18.736;2024-03-23T14:19:33;19.90;47.70
21439;DHT22;10880;50.302;18.736;2024-03-23T14:22:00;19.80;48.40
21439;DHT22;10880;50.302;18.736;2024-03-23T14:24:26;19.70;48.50
21439;DHT22;10880;50.302;18.736;2024-03-23T14:26:56;19.60;48.50
21439;DHT22;10880;50.302;18.736;2024-03-23T14:29:23;19.40;48.80
21439;DHT22;10880;50.302;18.736;2024-03-23T14:31:49;19.40;49.20
21439;DHT22;10880;50.302;18.736;2024-03-23T14:34:16;19.30;49.40
21439;DHT22;10880;50.302;18.736;2024-03-23T14:36:45;19.20;49.40
21439;DHT22;10880;50.302;18.736;2024-03-23T14:39:12;19.10;49.70
21439;DHT22;10880;50.302;18.736;2024-03-23T14:41:41;19.00;49.80
21439;DHT22;10880;50.302;18.736;2024-03-23T14:44:08;19.00;50.00
21439;DHT22;10880;50.302;18.736;2024-03-23T14:46:34;18.90;50.00
21439;DHT22;10880;50.302;18.736;2024-03-23T14:49:04;18.80;50.50
21439;DHT22;10880;50.302;18.736;2024-03-23T14:51:31;18.80;50.80
21439;DHT22;10880;50.302;18.736;2024-03-23T14:53:59;18.70;50.80
21439;DHT22;10880;50.302;18.736;2024-03-23T14:56:26;18.70;50.90
21439;DHT22;10880;50.302;18.736;2024-03-23T14:58:53;18.60;50.80
21439;DHT22;10880;50.302;18.736;2024-03-23T15:01:21;18.60;51.10
21439;DHT22;10880;50.302;18.736;2024-03-23T15:03:48;18.50;51.00
21439;DHT22;10880;50.302;18.736;2024-03-23T15:06:14;18.50;51.00
21439;DHT22;10880;50.302;18.736;2024-03-23T15:08:41;18.50;51.00
21439;DHT22;10880;50.302;18.736;2024-03-23T15:11:07;18.40;51.10
21439;DHT22;10880;50.302;18.736;2024-03-23T15:13:36;18.40;51.30
21439;DHT22;10880;50.302;18.736;2024-03-23T15:16:05;18.40;51.40
21439;DHT22;10880;50.302;18.736;2024-03-23T15:18:35;18.40;51.40
21439;DHT22;10880;50.302;18.736;2024-03-23T15:21:03;18.40;51.60
21439;DHT22;10880;50.302;18.736;2024-03-23T15:23:34;18.30;51.70
21439;DHT22;10880;50.302;18.736;2024-03-23T15:26:08;18.30;51.70
21439;DHT22;10880;50.302;18.736;2024-03-23T15:28:34;18.30;51.80
21439;DHT22;10880;50.302;18.736;2024-03-23T15:31:32;18.30;51.90
21439;DHT22;10880;50.302;18.736;2024-03-23T15:34:07;18.20;51.80
21439;DHT22;10880;50.302;18.736;2024-03-23T15:36:37;18.20;51.90
21439;DHT22;10880;50.302;18.736;2024-03-23T15:39:08;18.20;52.10
21439;DHT22;10880;50.302;18.736;2024-03-23T15:41:34;18.10;52.00
21439;DHT22;10880;50.302;18.736;2024-03-23T15:44:02;18.10;52.10
21439;DHT22;10880;50.302;18.736;2024-03-23T15:46:29;18.10;52.10
21439;DHT22;10880;50.302;18.736;2024-03-23T15:48:55;18.10;52.10
21439;DHT22;10880;50.302;18.736;2024-03-23T15:51:22;18.10;52.40
21439;DHT22;10880;50.302;18.736;2024-03-23T15:53:50;18.10;52.40
21439;DHT22;10880;50.302;18.736;2024-03-23T15:56:26;18.00;53.20
21439;DHT22;10880;50.302;18.736;2024-03-23T15:58:55;18.00;52.80
21439;DHT22;10880;50.302;18.736;2024-03-23T16:01:22;18.00;52.60
21439;DHT22;10880;50.302;18.736;2024-03-23T16:03:48;18.00;52.80
21439;DHT22;10880;50.302;18.736;2024-03-23T16:06:15;18.00;53.20
21439;DHT22;10880;50.302;18.736;2024-03-23T16:08:41;18.00;53.40
21439;DHT22;10880;50.302;18.736;2024-03-23T16:11:09;17.90;53.50
21439;DHT22;10880;50.302;18.736;2024-03-23T16:13:37;17.90;53.20
21439;DHT22;10880;50.302;18.736;2024-03-23T16:16:04;17.80;52.90
21439;DHT22;10880;50.302;18.736;2024-03-23T16:18:35;17.70;52.90
21439;DHT22;10880;50.302;18.736;2024-03-23T16:21:05;17.70;52.80
21439;DHT22;10880;50.302;18.736;2024-03-23T16:23:33;17.60;52.70
21439;DHT22;10880;50.302;18.736;2024-03-23T16:26:00;17.40;52.40